Time;durP1;ratioP1;P1;durP2;ratioP2;P2;SDS_P1;SDS_P2;PMS_P1;PMS_P2;Temp;Humidity;BMP_temperature;BMP_pressure;BME280_temperature;BME280_humidity;BME280_pressure;Samples;Min_cycle;Max_cycle;Signal;HPM_P1;HPM_P2
2021/04/12 00:00:00;;;;;;;5.80;4.20;;;;;;;8.97;64.64;100689.22;4949553;28;20050;-64
2021/04/12 00:02:49;;;;;;;6.32;4.05;;;;;;;9.00;64.22;100684.34;4960665;28;20119;-65
2021/04/12 00:05:33;;;;;;;10.23;4.43;;;;;;;8.98;63.91;100692.75;4961206;28;20055;-65
2021/04/12 00:08:11;;;;;;;5.70;3.92;;;;;;;8.92;63.89;100701.94;4960863;28;20035;-64
2021/04/12 00:10:46;;;;;;;6.05;4.00;;;;;;;8.97;63.95;100707.41;4960803;28;20019;-64
2021/04/12 00:13:41;;;;;;;6.28;3.67;;;;;;;9.01;63.67;100705.03;4975247;28;20034;-64
2021/04/12 00:16:36;;;;;;;5.68;3.67;;;;;;;8.93;62.70;100704.41;4949636;28;20409;-64
2021/04/12 00:19:21;;;;;;;6.05;3.88;;;;;;;8.92;62.81;100710.94;4958465;28;20039;-66
2021/04/12 00:21:55;;;;;;;5.82;3.72;;;;;;;8.93;62.67;100709.03;4960752;28;20550;-66
2021/04/12 00:24:28;;;;;;;6.88;4.03;;;;;;;8.95;62.55;100712.31;4960592;28;20055;-65
2021/04/12 00:27:05;;;;;;;5.47;3.72;;;;;;;8.88;61.79;100720.69;4960462;28;20070;-64
2021/04/12 00:29:42;;;;;;;8.30;3.75;;;;;;;8.91;62.53;100724.78;4960156;28;20112;-66
2021/04/12 00:32:10;;;;;;;5.88;3.35;;;;;;;8.87;62.39;100727.19;4960356;28;20034;-64
2021/04/12 00:34:59;;;;;;;6.63;3.63;;;;;;;8.85;61.92;100725.81;4960686;28;20102;-64
2021/04/12 00:37:37;;;;;;;5.63;3.85;;;;;;;8.64;61.83;100709.31;4970931;28;20027;-64
2021/04/12 00:40:15;;;;;;;6.85;3.58;;;;;;;8.75;62.33;100734.72;4960019;28;20058;-65
2021/04/12 00:43:01;;;;;;;6.78;4.00;;;;;;;8.72;62.29;100737.94;4962747;28;20034;-65
2021/04/12 00:45:58;;;;;;;9.90;4.35;;;;;;;8.68;61.94;100739.56;4962584;28;20027;-64
2021/04/12 00:48:48;;;;;;;7.80;4.03;;;;;;;8.56;62.15;100740.50;4942977;28;20430;-65
2021/04/12 00:51:39;;;;;;;9.57;4.13;;;;;;;8.52;62.33;100733.94;4960206;28;20365;-64
2021/04/12 00:54:51;;;;;;;8.77;3.88;;;;;;;8.52;62.42;100733.94;4960045;28;20032;-65
2021/04/12 00:57:38;;;;;;;6.03;3.53;;;;;;;8.41;62.16;100727.56;4950163;28;20035;-67
2021/04/12 01:00:11;;;;;;;6.10;3.40;;;;;;;8.38;62.20;100732.69;4959586;28;20108;-65
2021/04/12 01:02:55;;;;;;;7.15;4.10;;;;;;;8.41;62.69;100734.91;4958837;28;20027;-64
2021/04/12 01:05:34;;;;;;;5.07;3.28;;;;;;;8.38;62.65;100738.94;4959855;28;20029;-64
2021/04/12 01:08:18;;;;;;;10.13;3.70;;;;;;;8.36;62.39;100735.66;4960000;28;20026;-64
2021/04/12 01:11:01;;;;;;;5.38;3.47;;;;;;;8.34;62.68;100746.78;4959471;28;20373;-64
2021/04/12 01:13:54;;;;;;;5.28;3.00;;;;;;;8.30;62.21;100736.69;4959647;28;20073;-64
2021/04/12 01:16:29;;;;;;;6.35;3.42;;;;;;;8.25;62.12;100742.88;4949516;28;20019;-64
2021/04/12 01:19:15;;;;;;;5.60;3.35;;;;;;;8.25;62.03;100742.88;4959836;28;20051;-64
2021/04/12 01:21:46;;;;;;;;;;;;;;;8.16;62.37;100750.66;4960306;28;20023;-65
2021/04/12 01:24:51;;;;;;;5.22;3.20;;;;;;;8.10;62.54;100737.28;4959175;28;19919;-64
2021/04/12 01:27:34;;;;;;;6.55;3.53;;;;;;;8.03;62.77;100742.88;4938631;28;20035;-67
2021/04/12 01:30:25;;;;;;;6.53;3.42;;;;;;;8.00;62.11;100749.66;4958126;28;20031;-65
2021/04/12 01:33:16;;;;;;;6.30;3.50;;;;;;;7.91;62.29;100737.59;4949763;28;20042;-65
2021/04/12 01:36:03;;;;;;;6.00;3.45;;;;;;;7.98;62.36;100754.50;4959074;28;20499;-65
2021/04/12 01:38:35;;;;;;;4.93;3.35;;;;;;;7.97;63.03;100754.78;4959257;28;20078;-65
2021/04/12 01:41:32;;;;;;;6.45;3.55;;;;;;;7.96;62.65;100764.78;4959243;28;20023;-66
2021/04/12 01:44:27;;;;;;;7.72;3.67;;;;;;;7.92;63.08;100765.53;4952989;28;20082;-64
2021/04/12 01:47:08;;;;;;;7.75;3.80;;;;;;;7.84;63.32;100759.47;4967106;28;20035;-64
2021/04/12 01:50:07;;;;;;;6.30;3.83;;;;;;;7.81;63.37;100764.59;4957286;28;20479;-64
2021/04/12 01:53:03;;;;;;;6.82;4.10;;;;;;;7.76;63.54;100759.91;4959049;28;20499;-65
2021/04/12 01:55:50;;;;;;;7.00;4.67;;;;;;;7.75;64.02;100758.28;4958600;28;20031;-64
2021/04/12 01:58:40;;;;;;;6.45;4.07;;;;;;;7.69;63.91;100757.38;4946463;28;20035;-66
2021/04/12 02:01:43;;;;;;;5.93;4.22;;;;;;;7.63;64.71;100760.28;4958794;28;20027;-64
2021/04/12 02:04:20;;;;;;;10.50;4.60;;;;;;;7.54;64.85;100765.31;4958257;28;20381;-64
2021/04/12 02:07:01;;;;;;;6.68;4.15;;;;;;;7.53;65.05;100763.66;4958614;28;20035;-66
2021/04/12 02:09:26;;;;;;;6.97;4.72;;;;;;;7.45;65.27;100767.63;4958524;28;20042;-64
2021/04/12 02:12:21;;;;;;;5.80;4.20;;;;;;;7.40;65.67;100771.09;4958875;28;20035;-64
2021/04/12 02:15:12;;;;;;;6.60;3.95;;;;;;;7.36;65.47;100766.41;4945452;28;20039;-66
2021/04/12 02:17:59;;;;;;;6.90;4.28;;;;;;;7.30;65.79;100770.13;4958685;28;20035;-64
2021/04/12 02:20:29;;;;;;;6.32;4.05;;;;;;;7.20;65.74;100774.31;4958472;28;20488;-64
2021/04/12 02:23:11;;;;;;;5.18;3.90;;;;;;;7.18;65.57;100778.34;4958421;28;20034;-64
2021/04/12 02:26:12;;;;;;;6.38;3.90;;;;;;;7.15;65.33;100776.91;4958061;28;20057;-64
2021/04/12 02:28:50;;;;;;;6.85;4.10;;;;;;;7.16;65.86;100773.13;4956138;28;20062;-64
2021/04/12 02:31:41;;;;;;;9.07;4.18;;;;;;;7.21;65.21;100791.38;4958025;28;20031;-66
2021/04/12 02:34:18;;;;;;;9.18;4.03;;;;;;;7.18;65.57;100803.56;4952753;28;20035;-64
2021/04/12 02:37:14;;;;;;;6.68;3.65;;;;;;;7.16;65.34;100802.97;4962381;28;20087;-64
2021/04/12 02:39:43;;;;;;;6.38;3.70;;;;;;;7.11;65.22;100799.38;4957280;28;20494;-64
2021/04/12 02:42:42;;;;;;;9.13;3.50;;;;;;;7.06;65.42;100802.81;4958018;28;20034;-64
2021/04/12 02:45:15;;;;;;;6.00;4.00;;;;;;;6.98;65.58;100797.81;4949191;28;20034;-64
2021/04/12 02:48:04;;;;;;;5.68;3.60;;;;;;;7.02;65.60;100805.19;4958898;28;20042;-64
2021/04/12 02:50:50;;;;;;;7.10;3.92;;;;;;;7.00;65.58;100809.19;4956775;28;20039;-64
2021/04/12 02:53:41;;;;;;;7.15;3.38;;;;;;;6.97;65.70;100809.72;4957938;28;20336;-66
2021/04/12 02:56:15;;;;;;;10.45;4.30;;;;;;;6.94;65.56;100808.31;4957944;28;20035;-65
2021/04/12 02:59:05;;;;;;;5.45;3.42;;;;;;;6.90;65.38;100809.84;4957404;28;20110;-66
2021/04/12 03:01:49;;;;;;;8.13;3.85;;;;;;;6.85;65.98;100812.47;4957609;28;20078;-66
2021/04/12 03:04:26;;;;;;;9.05;4.13;;;;;;;6.77;66.02;100806.38;4954294;28;20039;-64
2021/04/12 03:07:00;;;;;;;8.93;3.80;;;;;;;6.73;65.79;100807.94;4957291;28;20126;-64
2021/04/12 03:09:46;;;;;;;5.65;3.67;;;;;;;6.71;65.69;100812.75;4957940;28;20033;-64
2021/04/12 03:12:43;;;;;;;4.60;3.28;;;;;;;6.65;66.04;100808.31;4935824;28;20046;-64
2021/04/12 03:15:34;;;;;;;6.95;3.83;;;;;;;6.62;66.05;100808.78;4957113;28;20035;-64
2021/04/12 03:18:16;;;;;;;9.32;3.95;;;;;;;6.58;66.33;100810.34;4957779;28;20066;-64
2021/04/12 03:20:47;;;;;;;6.63;3.20;;;;;;;6.55;66.18;100811.66;4958066;28;20050;-65
2021/04/12 03:23:50;;;;;;;7.25;3.30;;;;;;;6.55;66.44;100816.25;4957766;28;20035;-64
2021/04/12 03:26:51;;;;;;;6.82;4.03;;;;;;;6.49;66.25;100814.50;4952261;28;20388;-64
2021/04/12 03:29:58;;;;;;;7.20;3.95;;;;;;;6.45;66.29;100820.41;4956582;28;20094;-66
2021/04/12 03:32:48;;;;;;;6.90;3.42;;;;;;;6.26;66.31;100799.97;4888887;29;20542;-66
2021/04/12 03:35:23;;;;;;;5.68;3.40;;;;;;;6.18;66.54;100809.28;4879918;29;20047;-65
2021/04/12 03:38:13;;;;;;;6.72;3.40;;;;;;;6.25;66.47;100822.69;4925791;28;20484;-64
2021/04/12 03:40:40;;;;;;;9.10;3.63;;;;;;;6.18;66.68;100825.53;4957508;28;20027;-64
2021/04/12 03:43:31;;;;;;;7.50;4.10;;;;;;;6.14;66.94;100833.31;4958438;28;20027;-66
2021/04/12 03:46:22;;;;;;;7.35;3.28;;;;;;;6.08;67.08;100826.16;4957679;28;20475;-64
2021/04/12 03:49:06;;;;;;;6.50;3.58;;;;;;;6.04;66.82;100824.97;4957577;28;20098;-65
2021/04/12 03:51:58;;;;;;;5.22;3.25;;;;;;;5.99;67.06;100839.22;4957396;28;20023;-66
2021/04/12 03:54:51;;;;;;;5.70;3.05;;;;;;;5.98;66.71;100829.44;4957086;28;20115;-63
2021/04/12 03:57:31;;;;;;;5.22;2.90;;;;;;;5.99;67.13;100832.97;4957127;28;20031;-67
2021/04/12 04:00:21;;;;;;;6.72;3.28;;;;;;;6.01;66.75;100841.69;4956700;28;20039;-64
2021/04/12 04:03:01;;;;;;;4.28;3.00;;;;;;;5.99;66.91;100838.41;4945075;28;20032;-66
2021/04/12 04:05:51;;;;;;;5.10;3.17;;;;;;;5.99;66.37;100836.50;4956493;28;20039;-68
2021/04/12 04:08:41;;;;;;;7.13;2.75;;;;;;;5.98;66.94;100842.13;4956290;28;20106;-66
2021/04/12 04:11:15;;;;;;;6.03;3.38;;;;;;;5.93;66.48;100847.44;4956711;28;20107;-65
2021/04/12 04:14:03;;;;;;;4.35;2.60;;;;;;;5.92;66.80;100854.72;4957195;28;20023;-64
2021/04/12 04:16:47;;;;;;;6.70;2.80;;;;;;;5.89;66.60;100848.97;4956639;28;20027;-63
2021/04/12 04:19:29;;;;;;;7.53;3.38;;;;;;;5.87;66.46;100856.50;4950689;28;20031;-65
2021/04/12 04:22:18;;;;;;;9.48;3.33;;;;;;;5.86;66.53;100860.28;4960456;28;20395;-66
2021/04/12 04:25:22;;;;;;;5.13;2.97;;;;;;;5.85;66.67;100864.84;4953135;28;20039;-64
2021/04/12 04:28:23;;;;;;;7.05;3.28;;;;;;;5.70;66.59;100843.69;4954744;28;20051;-65
2021/04/12 04:31:31;;;;;;;4.75;2.83;;;;;;;5.79;66.56;100868.50;4932215;28;20531;-66
2021/04/12 04:34:15;;;;;;;5.90;2.83;;;;;;;5.76;66.63;100869.81;4959726;28;20031;-66
2021/04/12 04:37:12;;;;;;;8.38;3.00;;;;;;;5.77;66.63;100874.16;4966703;28;20031;-66
2021/04/12 04:39:56;;;;;;;6.65;3.03;;;;;;;5.77;66.54;100873.31;4959733;28;20059;-66
2021/04/12 04:42:43;;;;;;;5.95;3.60;;;;;;;5.79;66.72;100876.63;4959357;28;20035;-65
2021/04/12 04:45:17;;;;;;;6.05;3.13;;;;;;;5.80;66.70;100878.28;4961751;28;20137;-66
2021/04/12 04:48:01;;;;;;;10.48;3.58;;;;;;;5.80;66.76;100884.50;4962523;28;20035;-66
2021/04/12 04:50:34;;;;;;;5.78;3.33;;;;;;;5.80;66.84;100886.38;4959042;28;20118;-64
2021/04/12 04:53:24;;;;;;;7.28;3.55;;;;;;;5.80;66.42;100897.22;4960113;28;20034;-68
2021/04/12 04:56:04;;;;;;;6.35;3.33;;;;;;;5.76;66.77;100899.56;4956875;28;20106;-66
2021/04/12 04:58:32;;;;;;;6.18;3.35;;;;;;;5.75;66.82;100903.31;4959979;28;20444;-66
2021/04/12 05:01:30;;;;;;;5.97;3.60;;;;;;;5.79;66.56;100900.97;4959942;28;20035;-66
2021/04/12 05:04:16;;;;;;;7.05;3.33;;;;;;;5.74;67.02;100900.88;4946661;28;20074;-66
2021/04/12 05:06:53;;;;;;;6.90;3.17;;;;;;;5.71;66.71;100904.84;4957750;28;20038;-66
2021/04/12 05:09:30;;;;;;;8.85;3.40;;;;;;;5.70;66.79;100914.03;4959550;28;20514;-66
2021/04/12 05:12:31;;;;;;;4.63;3.15;;;;;;;5.67;67.11;100915.31;4959830;28;20057;-66
2021/04/12 05:15:05;;;;;;;13.82;4.28;;;;;;;5.66;66.89;100923.66;4943491;28;20074;-66
2021/04/12 05:17:33;;;;;;;6.25;3.33;;;;;;;5.63;67.11;100918.72;4960108;28;20038;-68
2021/04/12 05:20:20;;;;;;;5.50;3.00;;;;;;;5.63;66.96;100926.81;4959441;28;20031;-65
2021/04/12 05:23:30;;;;;;;4.32;3.25;;;;;;;5.63;66.99;100934.94;4959730;28;20039;-68
2021/04/12 05:26:17;;;;;;;5.07;3.30;;;;;;;5.57;67.04;100933.16;4959269;28;20512;-66
2021/04/12 05:29:00;;;;;;;4.95;3.20;;;;;;;5.52;67.44;100936.56;4958005;28;20182;-66
2021/04/12 05:31:56;;;;;;;5.68;3.38;;;;;;;5.49;67.42;100940.56;4957824;28;20050;-67
2021/04/12 05:34:43;;;;;;;9.45;4.18;;;;;;;5.48;67.81;100946.22;4952801;28;20107;-67
2021/04/12 05:37:35;;;;;;;4.70;3.20;;;;;;;5.49;67.65;100948.69;4957752;28;20020;-66
2021/04/12 05:40:32;;;;;;;9.98;3.00;;;;;;;5.49;67.72;100953.28;4958824;28;20419;-68
2021/04/12 05:43:16;;;;;;;7.05;3.75;;;;;;;5.48;67.64;100957.84;4960704;28;20491;-66
2021/04/12 05:46:03;;;;;;;4.43;3.42;;;;;;;5.47;67.79;100956.19;4959255;28;20372;-67
2021/04/12 05:48:57;;;;;;;4.10;3.10;;;;;;;5.21;67.58;100930.38;4956028;28;20031;-66
2021/04/12 05:51:41;;;;;;;5.78;3.92;;;;;;;5.44;68.20;100972.06;4956400;28;20031;-67
2021/04/12 05:54:40;;;;;;;12.75;3.80;;;;;;;5.47;67.62;100971.63;4958045;29;20019;-66
2021/04/12 05:57:12;;;;;;;4.22;3.40;;;;;;;5.51;68.16;100978.19;4957765;28;20035;-66
2021/04/12 05:59:48;;;;;;;6.20;3.78;;;;;;;5.58;67.67;100980.81;4958654;28;20023;-66
2021/04/12 06:02:23;;;;;;;5.75;3.50;;;;;;;5.57;67.62;100971.88;4957144;28;20106;-66
2021/04/12 06:05:02;;;;;;;5.90;3.90;;;;;;;5.75;67.75;100987.22;4957101;28;20023;-67
2021/04/12 06:07:53;;;;;;;8.80;5.13;;;;;;;5.78;67.59;100985.94;4956769;28;20031;-66
2021/04/12 06:10:42;;;;;;;7.15;4.28;;;;;;;5.83;67.40;100981.47;4934355;28;20514;-67
2021/04/12 06:13:34;;;;;;;12.45;4.30;;;;;;;5.79;67.54;100979.47;4957389;28;20019;-66
2021/04/12 06:16:31;;;;;;;8.00;4.43;;;;;;;5.79;67.45;100988.38;4952960;28;20038;-66
2021/04/12 06:19:32;;;;;;;8.52;5.18;;;;;;;5.79;68.07;101001.91;4957593;28;20110;-67
2021/04/12 06:22:08;;;;;;;6.93;4.97;;;;;;;5.79;68.14;101007.34;4939381;29;20040;-66
2021/04/12 06:24:46;;;;;;;6.82;5.30;;;;;;;5.77;68.41;101008.63;4956901;28;20479;-67
2021/04/12 06:27:43;;;;;;;9.32;5.43;;;;;;;5.76;67.92;101012.38;4957254;28;20400;-66
2021/04/12 06:30:21;;;;;;;7.22;4.75;;;;;;;5.67;68.34;101011.91;4949884;28;20034;-66
2021/04/12 06:32:55;;;;;;;10.30;5.45;;;;;;;5.67;68.47;101009.19;4956965;28;20166;-68
2021/04/12 06:35:47;;;;;;;9.02;5.80;;;;;;;5.68;68.66;101005.44;4954004;28;20184;-66
2021/04/12 06:38:46;;;;;;;10.23;6.15;;;;;;;5.62;69.17;101006.38;4956798;28;20039;-66
2021/04/12 06:41:46;;;;;;;11.90;7.00;;;;;;;5.59;69.60;101013.03;4952513;28;20051;-66
2021/04/12 06:44:42;;;;;;;9.80;6.30;;;;;;;5.54;69.62;101009.41;4962812;28;20027;-66
2021/04/12 06:47:33;;;;;;;10.13;6.25;;;;;;;5.51;69.54;101000.69;4958719;28;20507;-66
2021/04/12 06:50:14;;;;;;;9.63;6.75;;;;;;;5.54;69.84;101022.94;4941841;28;20054;-66
2021/04/12 06:53:00;;;;;;;8.70;6.30;;;;;;;5.53;69.95;101010.44;4956971;28;20023;-65
2021/04/12 06:55:55;;;;;;;8.82;6.53;;;;;;;5.57;69.70;101028.69;4958928;28;20031;-68
2021/04/12 06:58:44;;;;;;;9.45;6.47;;;;;;;5.58;69.74;101024.09;4948766;28;20031;-67
2021/04/12 07:01:31;;;;;;;11.85;6.22;;;;;;;5.61;69.33;101024.47;4968429;28;20031;-67
2021/04/12 07:04:24;;;;;;;11.77;6.13;;;;;;;5.70;69.31;101029.56;4952270;28;20031;-67
2021/04/12 07:07:04;;;;;;;11.07;5.45;;;;;;;5.77;69.21;101036.53;4957223;28;20042;-68
2021/04/12 07:09:44;;;;;;;8.35;6.07;;;;;;;5.84;69.18;101047.22;4957302;28;20395;-69
2021/04/12 07:12:28;;;;;;;8.75;5.97;;;;;;;5.92;68.80;101051.50;4963679;28;20102;-68
2021/04/12 07:15:42;;;;;;;11.65;6.30;;;;;;;6.06;68.71;101050.28;4946424;28;20027;-68
2021/04/12 07:18:31;;;;;;;12.00;6.93;;;;;;;6.25;68.83;101061.84;4938994;29;20071;-68
2021/04/12 07:21:11;;;;;;;9.30;6.50;;;;;;;6.40;68.20;101055.97;4957681;28;20050;-67
2021/04/12 07:24:08;;;;;;;10.85;6.40;;;;;;;6.52;67.55;101068.72;4957666;28;20024;-67
2021/04/12 07:26:54;;;;;;;8.68;5.85;;;;;;;6.55;67.67;101066.34;4957863;28;20038;-67
2021/04/12 07:29:49;;;;;;;8.15;6.22;;;;;;;6.56;67.03;101068.00;4955177;28;20043;-67
2021/04/12 07:32:58;;;;;;;10.45;5.72;;;;;;;6.57;67.38;101069.63;4955848;28;20076;-68
2021/04/12 07:35:32;;;;;;;9.05;6.30;;;;;;;6.58;66.59;101060.44;4930528;28;20472;-68
2021/04/12 07:38:35;;;;;;;8.93;6.55;;;;;;;6.65;66.83;101073.09;4969169;28;20027;-67
2021/04/12 07:41:27;;;;;;;11.45;6.38;;;;;;;6.56;67.03;101086.97;4946925;28;20189;-67
2021/04/12 07:44:17;;;;;;;7.70;5.68;;;;;;;6.55;66.86;101098.88;4955686;28;20067;-66
2021/04/12 07:47:17;;;;;;;7.85;5.65;;;;;;;6.56;67.27;101092.41;4960878;28;20031;-65
2021/04/12 07:49:58;;;;;;;9.85;6.40;;;;;;;6.68;67.43;101091.56;4956601;28;20038;-66
2021/04/12 07:53:01;;;;;;;9.02;6.10;;;;;;;6.84;66.56;101095.47;4956555;28;20046;-66
2021/04/12 07:55:35;;;;;;;7.38;5.88;;;;;;;6.84;66.47;101090.03;4959775;28;20082;-65
2021/04/12 07:58:21;;;;;;;8.80;6.20;;;;;;;6.93;66.90;101094.84;4960527;28;20041;-66
2021/04/12 08:00:53;;;;;;;;;;;;;;;7.03;66.76;101101.56;4961065;28;20038;-68
2021/04/12 08:03:27;;;;;;;9.52;7.13;;;;;;;7.08;66.42;101099.81;4960424;28;19919;-66
2021/04/12 08:06:16;;;;;;;10.05;6.47;;;;;;;7.23;66.41;101107.44;4960719;28;20062;-66
2021/04/12 08:09:12;;;;;;;7.15;6.45;;;;;;;7.40;65.92;101109.41;4963520;28;20054;-65
2021/04/12 08:11:45;;;;;;;7.50;6.10;;;;;;;7.40;65.42;101109.41;4966831;28;20038;-65
2021/04/12 08:14:22;;;;;;;8.98;6.15;;;;;;;7.44;65.40;101109.78;4951438;28;20024;-66
2021/04/12 08:17:29;;;;;;;8.85;6.68;;;;;;;7.40;65.13;101114.81;4958049;28;20039;-67
2021/04/12 08:20:31;;;;;;;8.98;7.30;;;;;;;7.21;65.28;101117.72;4943132;28;20512;-65
2021/04/12 08:23:35;;;;;;;8.77;6.55;;;;;;;7.21;65.47;101122.28;4964120;28;20067;-65
2021/04/12 08:26:38;;;;;;;8.23;6.63;;;;;;;7.18;65.04;101125.50;4959927;28;20039;-67
2021/04/12 08:29:28;;;;;;;8.95;6.90;;;;;;;7.17;65.36;101121.13;4959428;28;20043;-65
2021/04/12 08:32:41;;;;;;;11.52;7.07;;;;;;;7.28;64.99;101130.31;4952256;28;20034;-65
2021/04/12 08:35:50;;;;;;;8.40;6.75;;;;;;;7.37;64.82;101145.97;4949708;28;20443;-66
2021/04/12 08:38:44;;;;;;;9.80;7.18;;;;;;;7.54;65.35;101145.25;4950239;28;20027;-67
2021/04/12 08:41:27;;;;;;;9.32;6.53;;;;;;;7.62;64.34;101146.75;4958875;28;20027;-65
2021/04/12 08:44:12;;;;;;;9.98;7.43;;;;;;;7.65;64.29;101146.25;4970964;28;20034;-65
2021/04/12 08:46:47;;;;;;;9.88;7.07;;;;;;;7.67;64.55;101141.44;4951054;28;20047;-65
2021/04/12 08:49:54;;;;;;;9.90;6.70;;;;;;;7.78;63.67;101140.56;4959751;28;20403;-65
2021/04/12 08:53:00;;;;;;;9.03;7.10;;;;;;;7.85;63.87;101138.53;4959991;28;20031;-66
2021/04/12 08:55:26;;;;;;;9.70;7.45;;;;;;;7.89;63.66;101152.47;4959986;28;20263;-65
2021/04/12 08:58:28;;;;;;;11.30;7.07;;;;;;;7.93;63.50;101147.38;4962892;28;20021;-66
2021/04/12 09:01:15;;;;;;;8.20;7.00;;;;;;;7.99;62.89;101147.22;4956942;28;20479;-66
2021/04/12 09:03:40;;;;;;;8.73;6.45;;;;;;;8.01;62.63;101145.09;4949144;28;20473;-67
2021/04/12 09:06:49;;;;;;;9.10;6.93;;;;;;;8.02;62.29;101148.63;4959135;28;20389;-65
2021/04/12 09:09:42;;;;;;;8.98;6.60;;;;;;;8.02;62.09;101157.59;4957568;28;20027;-65
2021/04/12 09:12:13;;;;;;;7.82;6.68;;;;;;;7.92;62.33;101151.16;4959227;28;20031;-65
2021/04/12 09:14:58;;;;;;;10.02;6.82;;;;;;;7.82;62.21;101154.50;4958844;28;20541;-66
2021/04/12 09:17:48;;;;;;;7.82;6.30;;;;;;;7.91;62.27;101150.34;4965805;28;20031;-65
2021/04/12 09:20:51;;;;;;;8.68;6.63;;;;;;;8.05;62.09;101150.88;4959417;28;20484;-67
2021/04/12 09:23:53;;;;;;;8.55;6.90;;;;;;;8.13;62.12;101157.78;4957792;28;20027;-67
2021/04/12 09:26:47;;;;;;;8.82;6.47;;;;;;;8.42;62.49;101155.06;4951067;28;20114;-67
2021/04/12 09:29:30;;;;;;;7.85;6.72;;;;;;;8.62;61.84;101162.75;4968087;28;20090;-68
2021/04/12 09:32:23;;;;;;;7.93;6.28;;;;;;;8.75;60.92;101159.69;4964563;28;20586;-68
2021/04/12 09:35:07;;;;;;;9.65;6.88;;;;;;;8.84;60.90;101154.69;4959795;28;20019;-66
2021/04/12 09:38:21;;;;;;;8.80;6.38;;;;;;;8.97;60.21;101158.94;4959549;28;20058;-66
2021/04/12 09:41:17;;;;;;;8.77;6.70;;;;;;;8.98;59.80;101155.97;4947801;28;20118;-67
2021/04/12 09:44:07;;;;;;;9.43;7.03;;;;;;;9.03;60.39;101159.84;4955303;28;20031;-66
2021/04/12 09:47:06;;;;;;;10.05;6.25;;;;;;;9.00;59.50;101163.06;4967232;28;20031;-66
2021/04/12 09:49:57;;;;;;;12.48;6.55;;;;;;;8.76;58.76;101157.81;4959543;28;20530;-68
2021/04/12 09:52:41;;;;;;;9.45;6.97;;;;;;;8.66;59.70;101151.16;4964451;28;20035;-65
2021/04/12 09:55:45;;;;;;;12.30;6.57;;;;;;;8.55;59.80;101135.72;4957521;28;20031;-66
2021/04/12 09:59:03;;;;;;;7.53;6.40;;;;;;;8.52;60.09;101136.22;4937467;28;20027;-67
2021/04/12 10:01:42;;;;;;;7.13;5.85;;;;;;;8.50;60.11;101133.75;4948269;28;20026;-68
2021/04/12 10:04:52;;;;;;;8.38;6.20;;;;;;;8.49;60.38;101132.09;4960679;28;20436;-68
2021/04/12 10:07:33;;;;;;;7.53;6.72;;;;;;;8.33;60.79;101095.66;4958897;29;20102;-66
2021/04/12 10:10:14;;;;;;;8.85;7.05;;;;;;;8.59;60.62;101134.19;4958084;28;20030;-66
2021/04/12 10:13:12;;;;;;;7.55;6.65;;;;;;;8.64;60.64;101131.53;4957916;29;20475;-67
2021/04/12 10:15:45;;;;;;;8.23;5.85;;;;;;;8.71;60.86;101128.66;4966058;28;20023;-67
2021/04/12 10:18:13;;;;;;;7.35;5.90;;;;;;;8.75;59.46;101139.84;4958233;28;20446;-66
2021/04/12 10:21:02;;;;;;;8.65;6.40;;;;;;;8.81;58.92;101136.94;4957428;28;20484;-65
2021/04/12 10:23:31;;;;;;;8.00;6.57;;;;;;;8.90;59.59;101133.81;4951434;29;20045;-65
2021/04/12 10:26:05;;;;;;;8.30;6.22;;;;;;;9.00;58.94;101127.72;4957145;28;20035;-65
2021/04/12 10:28:56;;;;;;;7.88;6.35;;;;;;;9.01;58.22;101121.19;4957581;28;20051;-67
2021/04/12 10:31:34;;;;;;;9.25;5.95;;;;;;;9.10;58.58;101125.94;4957987;28;20023;-65
2021/04/12 10:34:09;;;;;;;8.20;6.85;;;;;;;9.26;57.75;101124.25;4958011;28;20035;-65
2021/04/12 10:36:45;;;;;;;7.93;6.18;;;;;;;9.29;57.18;101125.66;4969165;28;20566;-65
2021/04/12 10:39:23;;;;;;;11.30;6.20;;;;;;;9.38;57.49;101126.03;4958159;28;20037;-66
2021/04/12 10:41:57;;;;;;;8.30;6.28;;;;;;;9.41;56.33;101125.53;4957914;28;20046;-65
2021/04/12 10:44:42;;;;;;;9.35;7.20;;;;;;;9.55;56.14;101125.97;4962978;28;20024;-65
2021/04/12 10:47:18;;;;;;;7.25;6.03;;;;;;;9.71;56.58;101121.53;4963869;28;20027;-65
2021/04/12 10:50:08;;;;;;;11.15;6.65;;;;;;;9.88;55.64;101138.63;4957776;28;20027;-65
2021/04/12 10:52:45;;;;;;;8.25;5.50;;;;;;;10.16;55.50;101125.84;4957937;28;20027;-65
2021/04/12 10:55:19;;;;;;;7.88;5.70;;;;;;;10.36;54.99;101127.09;4945553;28;20415;-66
2021/04/12 10:58:00;;;;;;;7.22;6.00;;;;;;;10.36;52.21;101129.81;4957307;28;20027;-65
2021/04/12 11:00:47;;;;;;;8.48;5.65;;;;;;;10.28;51.52;101122.94;4957785;28;20023;-65
2021/04/12 11:03:46;;;;;;;8.02;6.05;;;;;;;10.25;50.57;101128.91;4957751;28;20136;-65
2021/04/12 11:06:33;;;;;;;6.57;5.28;;;;;;;10.43;51.50;101119.53;4957272;28;20396;-65
2021/04/12 11:09:21;;;;;;;7.30;5.28;;;;;;;10.68;52.01;101116.22;4957550;28;20034;-65
2021/04/12 11:11:57;;;;;;;6.40;5.20;;;;;;;10.80;51.66;101124.22;4955015;28;20039;-67
2021/04/12 11:14:22;;;;;;;;;;;;;;;10.81;50.43;101117.66;4957766;28;20395;-65
2021/04/12 11:16:58;;;;;;;10.27;5.43;;;;;;;10.96;52.16;101113.38;4958068;29;20298;-66
2021/04/12 11:19:34;;;;;;;6.20;5.50;;;;;;;11.04;49.96;101118.34;4957951;28;20020;-65
2021/04/12 11:22:37;;;;;;;11.70;5.20;;;;;;;10.94;47.58;101112.81;4957881;28;20031;-64
2021/04/12 11:25:24;;;;;;;6.82;5.15;;;;;;;10.90;48.51;101101.63;4957739;28;20123;-66
2021/04/12 11:27:52;;;;;;;9.68;4.93;;;;;;;11.01;48.83;101110.69;4947926;28;20428;-65
2021/04/12 11:30:24;;;;;;;6.00;4.55;;;;;;;11.16;48.54;101099.84;4961920;28;20042;-65
2021/04/12 11:32:52;;;;;;;6.72;4.70;;;;;;;11.26;46.80;101100.97;4961838;28;20033;-64
2021/04/12 11:35:48;;;;;;;6.18;5.03;;;;;;;11.20;47.09;101082.94;4963058;28;20412;-66
2021/04/12 11:38:17;;;;;;;6.82;4.97;;;;;;;11.23;46.88;101096.06;4958577;28;20047;-65
2021/04/12 11:40:58;;;;;;;6.00;4.65;;;;;;;10.98;45.80;101073.03;4961351;28;20046;-65
2021/04/12 11:43:35;;;;;;;5.18;4.55;;;;;;;10.82;45.90;101097.50;4963441;28;20035;-65
2021/04/12 11:46:15;;;;;;;5.13;4.30;;;;;;;10.76;46.36;101108.63;4968648;28;20026;-67
2021/04/12 11:48:47;;;;;;;8.63;5.25;;;;;;;10.52;45.13;101085.25;4949071;28;20031;-66
2021/04/12 11:51:22;;;;;;;6.60;4.47;;;;;;;10.73;45.96;101096.34;4961453;28;20035;-65
2021/04/12 11:53:57;;;;;;;5.95;4.60;;;;;;;10.92;46.54;101101.34;4961280;28;20031;-67
2021/04/12 11:56:41;;;;;;;6.05;4.65;;;;;;;11.18;45.82;101086.75;4961039;28;20035;-65
2021/04/12 11:59:34;;;;;;;5.45;3.72;;;;;;;11.39;46.07;101088.75;4960878;28;20030;-65
2021/04/12 12:02:21;;;;;;;4.90;3.80;;;;;;;11.42;44.50;101082.78;4951593;28;20027;-65
2021/04/12 12:04:53;;;;;;;5.63;4.55;;;;;;;11.50;43.88;101082.25;4960858;28;20050;-67
2021/04/12 12:07:42;;;;;;;5.45;4.10;;;;;;;11.69;43.87;101087.22;4960789;28;20436;-65
2021/04/12 12:10:13;;;;;;;7.63;4.30;;;;;;;11.68;43.70;101078.19;4960361;28;20016;-65
2021/04/12 12:13:00;;;;;;;5.68;4.60;;;;;;;11.89;44.63;101079.06;4960811;28;20023;-65
2021/04/12 12:16:02;;;;;;;7.80;4.57;;;;;;;11.93;43.71;101084.81;4960612;28;20034;-65
2021/04/12 12:18:34;;;;;;;6.18;4.53;;;;;;;11.86;43.99;101082.31;4960512;28;20102;-65
2021/04/12 12:21:21;;;;;;;6.20;4.88;;;;;;;11.83;42.91;101074.69;4958626;28;20110;-65
2021/04/12 12:24:11;;;;;;;6.10;3.90;;;;;;;11.84;43.71;101072.75;4958348;28;20031;-66
2021/04/12 12:26:40;;;;;;;6.13;3.70;;;;;;;11.92;43.52;101064.03;4952834;28;20083;-65
2021/04/12 12:29:27;;;;;;;6.70;3.75;;;;;;;11.97;43.46;101053.16;4958226;28;20412;-61
2021/04/12 12:32:07;;;;;;;4.20;3.80;;;;;;;12.18;43.35;101061.34;4960375;28;20019;-65
2021/04/12 12:34:54;;;;;;;10.20;6.03;;;;;;;12.30;43.27;101059.19;4960135;28;20054;-65
2021/04/12 12:37:41;;;;;;;7.70;4.07;;;;;;;12.35;43.13;101058.38;4956403;28;20031;-65
2021/04/12 12:40:30;;;;;;;6.00;4.15;;;;;;;12.35;43.05;101050.97;4966188;28;20042;-65
2021/04/12 12:43:06;;;;;;;6.45;4.38;;;;;;;12.54;43.76;101053.16;4966682;28;20045;-65
2021/04/12 12:45:39;;;;;;;4.35;3.88;;;;;;;12.73;43.00;101048.72;4952740;28;20019;-68
2021/04/12 12:48:23;;;;;;;7.50;3.72;;;;;;;12.88;42.39;101038.84;4960003;28;20061;-65
2021/04/12 12:50:54;;;;;;;4.70;3.63;;;;;;;12.96;41.98;101046.47;4958901;28;20523;-66
2021/04/12 12:53:26;;;;;;;7.40;3.58;;;;;;;12.90;41.42;101055.78;4959616;28;20023;-65
2021/04/12 12:55:56;;;;;;;4.93;4.07;;;;;;;12.91;41.40;101052.78;4965072;28;20043;-65
2021/04/12 12:58:25;;;;;;;4.78;3.40;;;;;;;12.87;40.90;101056.38;4959526;28;20038;-66